Terminal Aerodrome Forecast
Issued by NWS

Home | Current Version | Previous Version | Text Only | Print | Product List | Glossary On
Versions: 1 2 3 4 5 6 7 8 9 10 11 12 13 14 15 16 17 18 19
043
FTUS43 KICT 130520
TAFRSL
TAF
KRSL 130520Z 1306/1406 07010KT P6SM FEW025 OVC080
     FM131100 12011KT P6SM SCT025 BKN100
     FM131400 13012KT P6SM BKN030
     FM131800 16017KT P6SM BKN035
     FM132200 16015G23KT P6SM SCT150
     FM140500 16011KT P6SM SCT150=

USA.gov is the U.S. government's official web portal to all federal, state and local government web resources and services.